sensor_id;sensor_type;location;lat;lon;timestamp;temperature;humidity
63966;DHT22;50151;52.030;5.350;2023-11-21T00:01:14;6.80;99.90
63966;DHT22;50151;52.030;5.350;2023-11-21T00:03:41;6.90;99.90
63966;DHT22;50151;52.030;5.350;2023-11-21T00:06:08;6.90;99.90
63966;DHT22;50151;52.030;5.350;2023-11-21T00:08:38;6.90;99.90
63966;DHT22;50151;52.030;5.350;2023-11-21T00:11:05;6.90;99.90
63966;DHT22;50151;52.030;5.350;2023-11-21T00:13:32;6.80;99.90
63966;DHT22;50151;52.030;5.350;2023-11-21T00:15:59;6.80;99.90
63966;DHT22;50151;52.030;5.350;2023-11-21T00:18:26;6.80;99.90
63966;DHT22;50151;52.030;5.350;2023-11-21T00:20:53;6.80;99.90
63966;DHT22;50151;52.030;5.350;2023-11-21T00:23:19;6.80;99.90
63966;DHT22;50151;52.030;5.350;2023-11-21T00:25:46;6.80;99.90
63966;DHT22;50151;52.030;5.350;2023-11-21T00:28:13;6.80;99.90
63966;DHT22;50151;52.030;5.350;2023-11-21T00:30:43;6.90;99.90
63966;DHT22;50151;52.030;5.350;2023-11-21T00:33:09;6.90;99.90
63966;DHT22;50151;52.030;5.350;2023-11-21T00:35:36;6.90;99.90
63966;DHT22;50151;52.030;5.350;2023-11-21T00:38:03;6.90;99.90
63966;DHT22;50151;52.030;5.350;2023-11-21T00:40:30;6.90;99.90
63966;DHT22;50151;52.030;5.350;2023-11-21T00:42:58;6.90;99.90
63966;DHT22;50151;52.030;5.350;2023-11-21T00:45:24;6.90;99.90
63966;DHT22;50151;52.030;5.350;2023-11-21T00:47:51;6.90;99.90
63966;DHT22;50151;52.030;5.350;2023-11-21T00:50:18;7.00;99.90
63966;DHT22;50151;52.030;5.350;2023-11-21T00:52:45;6.90;99.90
63966;DHT22;50151;52.030;5.350;2023-11-21T00:55:12;6.90;99.90
63966;DHT22;50151;52.030;5.350;2023-11-21T00:57:39;6.90;99.90
63966;DHT22;50151;52.030;5.350;2023-11-21T01:00:07;6.90;99.90
63966;DHT22;50151;52.030;5.350;2023-11-21T01:02:35;6.90;99.90
63966;DHT22;50151;52.030;5.350;2023-11-21T01:05:03;6.90;99.90
63966;DHT22;50151;52.030;5.350;2023-11-21T01:07:30;6.90;99.90
63966;DHT22;50151;52.030;5.350;2023-11-21T01:09:57;6.90;99.90
63966;DHT22;50151;52.030;5.350;2023-11-21T01:12:23;6.80;99.90
63966;DHT22;50151;52.030;5.350;2023-11-21T01:14:51;6.90;99.90
63966;DHT22;50151;52.030;5.350;2023-11-21T01:17:18;6.90;99.90
63966;DHT22;50151;52.030;5.350;2023-11-21T01:19:45;6.80;99.90
63966;DHT22;50151;52.030;5.350;2023-11-21T01:22:12;6.80;99.90
63966;DHT22;50151;52.030;5.350;2023-11-21T01:24:38;6.80;99.90
63966;DHT22;50151;52.030;5.350;2023-11-21T01:27:05;6.80;99.90
63966;DHT22;50151;52.030;5.350;2023-11-21T01:29:32;6.90;99.90
63966;DHT22;50151;52.030;5.350;2023-11-21T01:31:58;6.80;99.90
63966;DHT22;50151;52.030;5.350;2023-11-21T01:34:25;6.80;99.90
63966;DHT22;50151;52.030;5.350;2023-11-21T01:36:52;6.80;99.90
63966;DHT22;50151;52.030;5.350;2023-11-21T01:39:18;6.80;99.90
63966;DHT22;50151;52.030;5.350;2023-11-21T01:41:50;6.80;99.90
63966;DHT22;50151;52.030;5.350;2023-11-21T01:44:18;6.80;99.90
63966;DHT22;50151;52.030;5.350;2023-11-21T01:46:46;6.80;99.90
63966;DHT22;50151;52.030;5.350;2023-11-21T01:49:14;6.80;99.90
63966;DHT22;50151;52.030;5.350;2023-11-21T01:51:43;6.70;99.90
63966;DHT22;50151;52.030;5.350;2023-11-21T01:54:13;6.80;99.90
63966;DHT22;50151;52.030;5.350;2023-11-21T01:56:46;6.70;99.90
63966;DHT22;50151;52.030;5.350;2023-11-21T01:59:19;6.70;99.90
63966;DHT22;50151;52.030;5.350;2023-11-21T02:01:48;6.80;99.90
63966;DHT22;50151;52.030;5.350;2023-11-21T02:04:17;6.80;99.90
63966;DHT22;50151;52.030;5.350;2023-11-21T02:06:44;6.80;99.90
63966;DHT22;50151;52.030;5.350;2023-11-21T02:09:11;6.80;99.90
63966;DHT22;50151;52.030;5.350;2023-11-21T02:11:41;6.80;99.90
63966;DHT22;50151;52.030;5.350;2023-11-21T02:14:08;6.80;99.90
63966;DHT22;50151;52.030;5.350;2023-11-21T02:16:36;6.90;99.90
63966;DHT22;50151;52.030;5.350;2023-11-21T02:19:07;6.90;99.90
63966;DHT22;50151;52.030;5.350;2023-11-21T02:21:35;6.80;99.90
63966;DHT22;50151;52.030;5.350;2023-11-21T02:24:03;6.90;99.90
63966;DHT22;50151;52.030;5.350;2023-11-21T02:26:29;6.90;99.90
63966;DHT22;50151;52.030;5.350;2023-11-21T02:28:57;6.90;99.90
63966;DHT22;50151;52.030;5.350;2023-11-21T02:31:24;7.00;99.90
63966;DHT22;50151;52.030;5.350;2023-11-21T02:33:51;7.10;99.90
63966;DHT22;50151;52.030;5.350;2023-11-21T02:36:19;7.10;99.90
63966;DHT22;50151;52.030;5.350;2023-11-21T02:38:48;7.10;99.90
63966;DHT22;50151;52.030;5.350;2023-11-21T02:41:14;7.10;99.90
63966;DHT22;50151;52.030;5.350;2023-11-21T02:43:41;7.10;99.90
63966;DHT22;50151;52.030;5.350;2023-11-21T02:46:08;7.10;99.90
63966;DHT22;50151;52.030;5.350;2023-11-21T02:48:35;7.10;99.90
63966;DHT22;50151;52.030;5.350;2023-11-21T02:51:02;7.10;99.90
63966;DHT22;50151;52.030;5.350;2023-11-21T02:53:29;7.10;99.90
63966;DHT22;50151;52.030;5.350;2023-11-21T02:55:55;7.20;99.90
63966;DHT22;50151;52.030;5.350;2023-11-21T02:58:22;7.20;99.90
63966;DHT22;50151;52.030;5.350;2023-11-21T03:00:49;7.20;99.90
63966;DHT22;50151;52.030;5.350;2023-11-21T03:03:16;7.20;99.90
63966;DHT22;50151;52.030;5.350;2023-11-21T03:05:43;7.20;99.90
63966;DHT22;50151;52.030;5.350;2023-11-21T03:08:10;7.20;99.90
63966;DHT22;50151;52.030;5.350;2023-11-21T03:10:37;7.20;99.90
63966;DHT22;50151;52.030;5.350;2023-11-21T03:13:04;7.20;99.90
63966;DHT22;50151;52.030;5.350;2023-11-21T03:15:31;7.20;99.90
63966;DHT22;50151;52.030;5.350;2023-11-21T03:17:59;7.20;99.90
63966;DHT22;50151;52.030;5.350;2023-11-21T03:20:25;7.20;99.90
63966;DHT22;50151;52.030;5.350;2023-11-21T03:22:52;7.20;99.90
63966;DHT22;50151;52.030;5.350;2023-11-21T03:25:19;7.30;99.90
63966;DHT22;50151;52.030;5.350;2023-11-21T03:27:46;7.30;99.90
63966;DHT22;50151;52.030;5.350;2023-11-21T03:30:13;7.30;99.90
63966;DHT22;50151;52.030;5.350;2023-11-21T03:32:39;7.30;99.90
63966;DHT22;50151;52.030;5.350;2023-11-21T03:35:06;7.30;99.90
63966;DHT22;50151;52.030;5.350;2023-11-21T03:37:34;7.30;99.90
63966;DHT22;50151;52.030;5.350;2023-11-21T03:40:01;7.30;99.90
63966;DHT22;50151;52.030;5.350;2023-11-21T03:42:30;7.30;99.90
63966;DHT22;50151;52.030;5.350;2023-11-21T03:44:57;7.40;99.90
63966;DHT22;50151;52.030;5.350;2023-11-21T03:47:24;7.40;99.90
63966;DHT22;50151;52.030;5.350;2023-11-21T03:49:51;7.40;99.90
63966;DHT22;50151;52.030;5.350;2023-11-21T03:52:17;7.50;99.90
63966;DHT22;50151;52.030;5.350;2023-11-21T03:54:44;7.50;99.90
63966;DHT22;50151;52.030;5.350;2023-11-21T03:57:12;7.50;99.90
63966;DHT22;50151;52.030;5.350;2023-11-21T03:59:42;7.50;99.90
63966;DHT22;50151;52.030;5.350;2023-11-21T04:02:09;7.50;99.90
63966;DHT22;50151;52.030;5.350;2023-11-21T04:04:36;7.50;99.90
63966;DHT22;50151;52.030;5.350;2023-11-21T04:07:03;7.50;99.90
63966;DHT22;50151;52.030;5.350;2023-11-21T04:09:30;7.60;99.90
63966;DHT22;50151;52.030;5.350;2023-11-21T04:11:57;7.50;99.90
63966;DHT22;50151;52.030;5.350;2023-11-21T04:14:24;7.60;99.90
63966;DHT22;50151;52.030;5.350;2023-11-21T04:16:50;7.50;99.90
63966;DHT22;50151;52.030;5.350;2023-11-21T04:19:17;7.60;99.90
63966;DHT22;50151;52.030;5.350;2023-11-21T04:21:44;7.60;99.90
63966;DHT22;50151;52.030;5.350;2023-11-21T04:24:11;7.60;99.90
63966;DHT22;50151;52.030;5.350;2023-11-21T04:26:38;7.70;99.90
63966;DHT22;50151;52.030;5.350;2023-11-21T04:29:04;7.60;99.90
63966;DHT22;50151;52.030;5.350;2023-11-21T04:31:31;7.70;99.90
63966;DHT22;50151;52.030;5.350;2023-11-21T04:33:58;7.70;99.90
63966;DHT22;50151;52.030;5.350;2023-11-21T04:36:25;7.70;99.90
63966;DHT22;50151;52.030;5.350;2023-11-21T04:38:52;7.80;99.90
63966;DHT22;50151;52.030;5.350;2023-11-21T04:41:19;7.80;99.90
63966;DHT22;50151;52.030;5.350;2023-11-21T04:43:46;7.80;99.90
63966;DHT22;50151;52.030;5.350;2023-11-21T04:46:12;7.80;99.90
63966;DHT22;50151;52.030;5.350;2023-11-21T04:48:39;7.90;99.90
63966;DHT22;50151;52.030;5.350;2023-11-21T04:51:06;7.80;99.90
63966;DHT22;50151;52.030;5.350;2023-11-21T04:53:33;7.90;99.90
63966;DHT22;50151;52.030;5.350;2023-11-21T04:56:01;7.90;99.90
63966;DHT22;50151;52.030;5.350;2023-11-21T04:58:27;7.90;99.90
63966;DHT22;50151;52.030;5.350;2023-11-21T05:00:54;7.90;99.90
63966;DHT22;50151;52.030;5.350;2023-11-21T05:03:21;8.00;99.90
63966;DHT22;50151;52.030;5.350;2023-11-21T05:05:50;8.00;99.90
63966;DHT22;50151;52.030;5.350;2023-11-21T05:08:17;8.00;99.90
63966;DHT22;50151;52.030;5.350;2023-11-21T05:10:44;7.90;99.90
63966;DHT22;50151;52.030;5.350;2023-11-21T05:13:10;8.00;99.90
63966;DHT22;50151;52.030;5.350;2023-11-21T05:15:37;8.00;99.90
63966;DHT22;50151;52.030;5.350;2023-11-21T05:18:05;8.00;99.90
63966;DHT22;50151;52.030;5.350;2023-11-21T05:20:33;8.00;99.90
63966;DHT22;50151;52.030;5.350;2023-11-21T05:23:00;8.00;99.90
63966;DHT22;50151;52.030;5.350;2023-11-21T05:25:26;8.00;99.90
63966;DHT22;50151;52.030;5.350;2023-11-21T05:27:53;8.00;99.90
63966;DHT22;50151;52.030;5.350;2023-11-21T05:30:25;8.10;99.90
63966;DHT22;50151;52.030;5.350;2023-11-21T05:32:52;8.00;99.90
63966;DHT22;50151;52.030;5.350;2023-11-21T05:35:20;8.00;99.90
63966;DHT22;50151;52.030;5.350;2023-11-21T05:37:47;8.10;99.90
63966;DHT22;50151;52.030;5.350;2023-11-21T05:40:14;8.10;99.90
63966;DHT22;50151;52.030;5.350;2023-11-21T05:42:41;8.10;99.90
63966;DHT22;50151;52.030;5.350;2023-11-21T05:45:08;8.10;99.90
63966;DHT22;50151;52.030;5.350;2023-11-21T05:47:43;8.10;99.90
63966;DHT22;50151;52.030;5.350;2023-11-21T05:50:14;8.10;99.90
63966;DHT22;50151;52.030;5.350;2023-11-21T05:52:45;8.10;99.90
63966;DHT22;50151;52.030;5.350;2023-11-21T05:55:13;8.10;99.90
63966;DHT22;50151;52.030;5.350;2023-11-21T05:57:41;8.10;99.90
63966;DHT22;50151;52.030;5.350;2023-11-21T06:00:13;8.10;99.90
63966;DHT22;50151;52.030;5.350;2023-11-21T06:02:52;8.10;99.90
63966;DHT22;50151;52.030;5.350;2023-11-21T06:05:24;8.10;99.90
63966;DHT22;50151;52.030;5.350;2023-11-21T06:07:53;8.10;99.90
63966;DHT22;50151;52.030;5.350;2023-11-21T06:10:21;8.10;99.90
63966;DHT22;50151;52.030;5.350;2023-11-21T06:12:49;8.20;99.90
63966;DHT22;50151;52.030;5.350;2023-11-21T06:15:15;8.20;99.90
63966;DHT22;50151;52.030;5.350;2023-11-21T06:17:45;8.20;99.90
63966;DHT22;50151;52.030;5.350;2023-11-21T06:20:16;8.20;99.90
63966;DHT22;50151;52.030;5.350;2023-11-21T06:22:47;8.20;99.90
63966;DHT22;50151;52.030;5.350;2023-11-21T06:25:14;8.20;99.90
63966;DHT22;50151;52.030;5.350;2023-11-21T06:27:46;8.20;99.90
63966;DHT22;50151;52.030;5.350;2023-11-21T06:30:13;8.30;99.90
63966;DHT22;50151;52.030;5.350;2023-11-21T06:32:41;8.30;99.90
63966;DHT22;50151;52.030;5.350;2023-11-21T06:35:13;8.30;99.90
63966;DHT22;50151;52.030;5.350;2023-11-21T06:37:40;8.30;99.90
63966;DHT22;50151;52.030;5.350;2023-11-21T06:40:07;8.30;99.90
63966;DHT22;50151;52.030;5.350;2023-11-21T06:42:34;8.30;99.90
63966;DHT22;50151;52.030;5.350;2023-11-21T06:45:01;8.30;99.90
63966;DHT22;50151;52.030;5.350;2023-11-21T06:47:30;8.30;99.90
63966;DHT22;50151;52.030;5.350;2023-11-21T06:49:58;8.40;99.90
63966;DHT22;50151;52.030;5.350;2023-11-21T06:52:25;8.40;99.90
63966;DHT22;50151;52.030;5.350;2023-11-21T06:54:52;8.40;99.90
63966;DHT22;50151;52.030;5.350;2023-11-21T06:57:19;8.40;99.90
63966;DHT22;50151;52.030;5.350;2023-11-21T06:59:46;8.40;99.90
63966;DHT22;50151;52.030;5.350;2023-11-21T07:02:13;8.40;99.90
63966;DHT22;50151;52.030;5.350;2023-11-21T07:04:41;8.40;99.90
63966;DHT22;50151;52.030;5.350;2023-11-21T07:07:07;8.50;99.90
63966;DHT22;50151;52.030;5.350;2023-11-21T07:09:34;8.40;99.90
63966;DHT22;50151;52.030;5.350;2023-11-21T07:12:01;8.50;99.90
63966;DHT22;50151;52.030;5.350;2023-11-21T07:14:30;8.50;99.90
63966;DHT22;50151;52.030;5.350;2023-11-21T07:16:57;8.50;99.90
63966;DHT22;50151;52.030;5.350;2023-11-21T07:19:23;8.50;99.90
63966;DHT22;50151;52.030;5.350;2023-11-21T07:21:51;8.50;99.90
63966;DHT22;50151;52.030;5.350;2023-11-21T07:24:18;8.60;99.90
63966;DHT22;50151;52.030;5.350;2023-11-21T07:26:45;8.60;99.90
63966;DHT22;50151;52.030;5.350;2023-11-21T07:29:11;8.60;99.90
63966;DHT22;50151;52.030;5.350;2023-11-21T07:31:40;8.60;99.90
63966;DHT22;50151;52.030;5.350;2023-11-21T07:34:08;8.70;99.90
63966;DHT22;50151;52.030;5.350;2023-11-21T07:36:34;8.70;99.90
63966;DHT22;50151;52.030;5.350;2023-11-21T07:39:01;8.70;99.90
63966;DHT22;50151;52.030;5.350;2023-11-21T07:41:29;8.70;99.90
63966;DHT22;50151;52.030;5.350;2023-11-21T07:43:57;8.80;99.90
63966;DHT22;50151;52.030;5.350;2023-11-21T07:46:26;8.80;99.90
63966;DHT22;50151;52.030;5.350;2023-11-21T07:48:53;8.80;99.90
63966;DHT22;50151;52.030;5.350;2023-11-21T07:51:21;8.80;99.90
63966;DHT22;50151;52.030;5.350;2023-11-21T07:53:48;8.80;99.90
63966;DHT22;50151;52.030;5.350;2023-11-21T07:56:16;8.80;99.90
63966;DHT22;50151;52.030;5.350;2023-11-21T07:58:43;8.90;99.90
63966;DHT22;50151;52.030;5.350;2023-11-21T08:01:09;8.90;99.90
63966;DHT22;50151;52.030;5.350;2023-11-21T08:03:36;8.90;99.90
63966;DHT22;50151;52.030;5.350;2023-11-21T08:06:03;8.90;99.90
63966;DHT22;50151;52.030;5.350;2023-11-21T08:08:32;9.00;99.90
63966;DHT22;50151;52.030;5.350;2023-11-21T08:10:59;9.00;99.90
63966;DHT22;50151;52.030;5.350;2023-11-21T08:13:29;9.00;99.90
63966;DHT22;50151;52.030;5.350;2023-11-21T08:15:58;9.00;99.90
63966;DHT22;50151;52.030;5.350;2023-11-21T08:18:31;9.10;99.90
63966;DHT22;50151;52.030;5.350;2023-11-21T08:20:58;9.10;99.90
63966;DHT22;50151;52.030;5.350;2023-11-21T08:23:25;9.20;99.90
63966;DHT22;50151;52.030;5.350;2023-11-21T08:25:55;9.10;99.90
63966;DHT22;50151;52.030;5.350;2023-11-21T08:28:22;9.20;99.90
63966;DHT22;50151;52.030;5.350;2023-11-21T08:30:52;9.30;99.90
63966;DHT22;50151;52.030;5.350;2023-11-21T08:33:20;9.30;99.90
63966;DHT22;50151;52.030;5.350;2023-11-21T08:35:47;9.30;99.90
63966;DHT22;50151;52.030;5.350;2023-11-21T08:38:14;9.30;99.90
63966;DHT22;50151;52.030;5.350;2023-11-21T08:40:41;9.40;99.90
63966;DHT22;50151;52.030;5.350;2023-11-21T08:43:08;9.40;99.90
63966;DHT22;50151;52.030;5.350;2023-11-21T08:45:34;9.50;99.90
63966;DHT22;50151;52.030;5.350;2023-11-21T08:48:02;9.50;99.90
63966;DHT22;50151;52.030;5.350;2023-11-21T08:50:29;9.50;99.90
63966;DHT22;50151;52.030;5.350;2023-11-21T08:52:55;9.50;99.90
63966;DHT22;50151;52.030;5.350;2023-11-21T08:55:22;9.60;99.90
63966;DHT22;50151;52.030;5.350;2023-11-21T08:57:49;9.60;99.90
63966;DHT22;50151;52.030;5.350;2023-11-21T09:00:17;9.60;99.90
63966;DHT22;50151;52.030;5.350;2023-11-21T09:02:45;9.60;99.90
63966;DHT22;50151;52.030;5.350;2023-11-21T09:05:13;9.60;99.90
63966;DHT22;50151;52.030;5.350;2023-11-21T09:07:41;9.70;99.90
63966;DHT22;50151;52.030;5.350;2023-11-21T09:10:08;9.70;99.90
63966;DHT22;50151;52.030;5.350;2023-11-21T09:12:36;9.80;99.90
63966;DHT22;50151;52.030;5.350;2023-11-21T09:15:07;9.80;99.90
63966;DHT22;50151;52.030;5.350;2023-11-21T09:17:34;9.80;99.90
63966;DHT22;50151;52.030;5.350;2023-11-21T09:20:02;10.00;99.90
63966;DHT22;50151;52.030;5.350;2023-11-21T09:22:30;10.10;99.90
63966;DHT22;50151;52.030;5.350;2023-11-21T09:24:58;10.20;99.90
63966;DHT22;50151;52.030;5.350;2023-11-21T09:27:25;10.30;99.90
63966;DHT22;50151;52.030;5.350;2023-11-21T09:29:54;10.40;99.90
63966;DHT22;50151;52.030;5.350;2023-11-21T09:32:21;10.40;99.90
63966;DHT22;50151;52.030;5.350;2023-11-21T09:34:49;10.40;99.90
63966;DHT22;50151;52.030;5.350;2023-11-21T09:37:17;10.50;99.90
63966;DHT22;50151;52.030;5.350;2023-11-21T09:39:44;10.40;99.90
63966;DHT22;50151;52.030;5.350;2023-11-21T09:42:15;10.40;99.90
63966;DHT22;50151;52.030;5.350;2023-11-21T09:45:05;10.50;99.90
63966;DHT22;50151;52.030;5.350;2023-11-21T09:47:38;10.50;99.90
63966;DHT22;50151;52.030;5.350;2023-11-21T09:50:05;10.50;99.90
63966;DHT22;50151;52.030;5.350;2023-11-21T09:53:22;10.50;99.90
63966;DHT22;50151;52.030;5.350;2023-11-21T09:55:30;10.50;99.90
63966;DHT22;50151;52.030;5.350;2023-11-21T09:58:03;10.50;99.90
63966;DHT22;50151;52.030;5.350;2023-11-21T10:00:32;10.50;99.90
63966;DHT22;50151;52.030;5.350;2023-11-21T10:02:59;10.50;99.90
63966;DHT22;50151;52.030;5.350;2023-11-21T10:05:27;10.50;99.90
63966;DHT22;50151;52.030;5.350;2023-11-21T10:07:56;10.50;99.90
63966;DHT22;50151;52.030;5.350;2023-11-21T10:10:24;10.50;99.90
63966;DHT22;50151;52.030;5.350;2023-11-21T10:12:55;10.50;99.90
63966;DHT22;50151;52.030;5.350;2023-11-21T10:15:23;10.40;99.90
63966;DHT22;50151;52.030;5.350;2023-11-21T10:17:55;10.50;99.90
63966;DHT22;50151;52.030;5.350;2023-11-21T10:20:23;10.40;99.90
63966;DHT22;50151;52.030;5.350;2023-11-21T10:22:51;10.40;99.90
63966;DHT22;50151;52.030;5.350;2023-11-21T10:25:18;10.50;99.90
63966;DHT22;50151;52.030;5.350;2023-11-21T10:27:48;10.50;99.90
63966;DHT22;50151;52.030;5.350;2023-11-21T10:30:18;10.50;99.90
63966;DHT22;50151;52.030;5.350;2023-11-21T10:32:45;10.50;99.90
63966;DHT22;50151;52.030;5.350;2023-11-21T10:35:12;10.60;99.90
63966;DHT22;50151;52.030;5.350;2023-11-21T10:37:41;10.50;99.90
63966;DHT22;50151;52.030;5.350;2023-11-21T10:40:10;10.60;99.90
63966;DHT22;50151;52.030;5.350;2023-11-21T10:42:39;10.50;99.90
63966;DHT22;50151;52.030;5.350;2023-11-21T10:45:08;10.50;99.90
63966;DHT22;50151;52.030;5.350;2023-11-21T10:47:42;10.50;99.90
63966;DHT22;50151;52.030;5.350;2023-11-21T10:50:10;10.50;99.90
63966;DHT22;50151;52.030;5.350;2023-11-21T10:52:41;10.50;99.90
63966;DHT22;50151;52.030;5.350;2023-11-21T10:55:20;10.50;99.90
63966;DHT22;50151;52.030;5.350;2023-11-21T10:57:53;10.50;99.90
63966;DHT22;50151;52.030;5.350;2023-11-21T11:00:20;10.50;99.90
63966;DHT22;50151;52.030;5.350;2023-11-21T11:02:53;10.50;99.90
63966;DHT22;50151;52.030;5.350;2023-11-21T11:05:28;10.50;99.90
63966;DHT22;50151;52.030;5.350;2023-11-21T11:08:00;10.40;99.90
63966;DHT22;50151;52.030;5.350;2023-11-21T11:10:29;10.40;99.90
63966;DHT22;50151;52.030;5.350;2023-11-21T11:12:59;10.40;99.90
63966;DHT22;50151;52.030;5.350;2023-11-21T11:15:26;10.40;99.90
63966;DHT22;50151;52.030;5.350;2023-11-21T11:17:54;10.30;99.90
63966;DHT22;50151;52.030;5.350;2023-11-21T11:20:31;10.40;99.90
63966;DHT22;50151;52.030;5.350;2023-11-21T11:26:27;10.30;99.90
63966;DHT22;50151;52.030;5.350;2023-11-21T11:29:08;10.40;99.90
63966;DHT22;50151;52.030;5.350;2023-11-21T11:31:50;10.50;99.90
63966;DHT22;50151;52.030;5.350;2023-11-21T11:37:00;10.50;99.90
63966;DHT22;50151;52.030;5.350;2023-11-21T11:39:40;10.40;99.90
63966;DHT22;50151;52.030;5.350;2023-11-21T11:42:15;10.40;99.90
63966;DHT22;50151;52.030;5.350;2023-11-21T11:47:19;10.40;99.90
63966;DHT22;50151;52.030;5.350;2023-11-21T11:52:42;10.40;99.90
63966;DHT22;50151;52.030;5.350;2023-11-21T11:55:14;10.40;99.90
63966;DHT22;50151;52.030;5.350;2023-11-21T11:57:42;10.30;99.90
63966;DHT22;50151;52.030;5.350;2023-11-21T12:02:51;10.30;99.90
63966;DHT22;50151;52.030;5.350;2023-11-21T12:05:22;10.40;99.90
63966;DHT22;50151;52.030;5.350;2023-11-21T12:07:57;10.30;99.90
63966;DHT22;50151;52.030;5.350;2023-11-21T12:10:26;10.30;99.90
63966;DHT22;50151;52.030;5.350;2023-11-21T12:12:57;10.40;99.90
63966;DHT22;50151;52.030;5.350;2023-11-21T12:15:25;10.40;99.90
63966;DHT22;50151;52.030;5.350;2023-11-21T12:17:52;10.40;99.90
63966;DHT22;50151;52.030;5.350;2023-11-21T12:20:21;10.40;99.90
63966;DHT22;50151;52.030;5.350;2023-11-21T12:22:54;10.50;99.90
63966;DHT22;50151;52.030;5.350;2023-11-21T12:25:23;10.40;99.90
63966;DHT22;50151;52.030;5.350;2023-11-21T12:27:52;10.40;99.90
63966;DHT22;50151;52.030;5.350;2023-11-21T12:30:21;10.50;99.90
63966;DHT22;50151;52.030;5.350;2023-11-21T12:32:53;10.50;99.90
63966;DHT22;50151;52.030;5.350;2023-11-21T12:35:22;10.50;99.90
63966;DHT22;50151;52.030;5.350;2023-11-21T12:37:51;10.40;99.90
63966;DHT22;50151;52.030;5.350;2023-11-21T12:40:19;10.50;99.90
63966;DHT22;50151;52.030;5.350;2023-11-21T12:42:47;10.50;99.90
63966;DHT22;50151;52.030;5.350;2023-11-21T12:45:25;10.50;99.90
63966;DHT22;50151;52.030;5.350;2023-11-21T12:48:00;10.50;99.90
63966;DHT22;50151;52.030;5.350;2023-11-21T12:50:29;10.50;99.90
63966;DHT22;50151;52.030;5.350;2023-11-21T12:53:00;10.50;99.90
63966;DHT22;50151;52.030;5.350;2023-11-21T12:55:30;10.50;99.90
63966;DHT22;50151;52.030;5.350;2023-11-21T12:57:57;10.50;99.90
63966;DHT22;50151;52.030;5.350;2023-11-21T13:00:35;10.50;99.90
63966;DHT22;50151;52.030;5.350;2023-11-21T13:03:05;10.50;99.90
63966;DHT22;50151;52.030;5.350;2023-11-21T13:05:39;10.50;99.90
63966;DHT22;50151;52.030;5.350;2023-11-21T13:08:11;10.50;99.90
63966;DHT22;50151;52.030;5.350;2023-11-21T13:10:44;10.40;99.90
63966;DHT22;50151;52.030;5.350;2023-11-21T13:13:14;10.40;99.90
63966;DHT22;50151;52.030;5.350;2023-11-21T13:15:51;10.50;99.90
63966;DHT22;50151;52.030;5.350;2023-11-21T13:18:19;10.50;99.90
63966;DHT22;50151;52.030;5.350;2023-11-21T13:20:49;10.50;99.90
63966;DHT22;50151;52.030;5.350;2023-11-21T13:23:16;10.50;99.90
63966;DHT22;50151;52.030;5.350;2023-11-21T13:25:44;10.60;99.90
63966;DHT22;50151;52.030;5.350;2023-11-21T13:28:20;10.60;99.90
63966;DHT22;50151;52.030;5.350;2023-11-21T13:30:48;10.60;99.90
63966;DHT22;50151;52.030;5.350;2023-11-21T13:33:19;10.60;99.90
63966;DHT22;50151;52.030;5.350;2023-11-21T13:35:48;10.60;99.90
63966;DHT22;50151;52.030;5.350;2023-11-21T13:38:18;10.60;99.90
63966;DHT22;50151;52.030;5.350;2023-11-21T13:40:50;10.60;99.90
63966;DHT22;50151;52.030;5.350;2023-11-21T13:43:21;10.60;99.90
63966;DHT22;50151;52.030;5.350;2023-11-21T13:45:51;10.60;99.90
63966;DHT22;50151;52.030;5.350;2023-11-21T13:48:26;10.60;99.90
63966;DHT22;50151;52.030;5.350;2023-11-21T13:51:01;10.60;99.90
63966;DHT22;50151;52.030;5.350;2023-11-21T13:53:37;10.60;99.90
63966;DHT22;50151;52.030;5.350;2023-11-21T13:56:05;10.60;99.90
63966;DHT22;50151;52.030;5.350;2023-11-21T13:58:32;10.50;99.90
63966;DHT22;50151;52.030;5.350;2023-11-21T14:01:11;10.50;99.90
63966;DHT22;50151;52.030;5.350;2023-11-21T14:03:51;10.50;99.90
63966;DHT22;50151;52.030;5.350;2023-11-21T14:06:26;10.50;99.90
63966;DHT22;50151;52.030;5.350;2023-11-21T14:09:01;10.50;99.90
63966;DHT22;50151;52.030;5.350;2023-11-21T14:11:32;10.50;99.90
63966;DHT22;50151;52.030;5.350;2023-11-21T14:14:08;10.40;99.90
63966;DHT22;50151;52.030;5.350;2023-11-21T14:16:36;10.40;99.90
63966;DHT22;50151;52.030;5.350;2023-11-21T14:19:03;10.40;99.90
63966;DHT22;50151;52.030;5.350;2023-11-21T14:21:43;10.30;99.90
63966;DHT22;50151;52.030;5.350;2023-11-21T14:24:13;10.20;99.90
63966;DHT22;50151;52.030;5.350;2023-11-21T14:26:41;10.20;99.90
63966;DHT22;50151;52.030;5.350;2023-11-21T14:29:09;10.20;99.90
63966;DHT22;50151;52.030;5.350;2023-11-21T14:31:39;10.20;99.90
63966;DHT22;50151;52.030;5.350;2023-11-21T14:34:07;10.20;99.90
63966;DHT22;50151;52.030;5.350;2023-11-21T14:36:34;10.10;99.90
63966;DHT22;50151;52.030;5.350;2023-11-21T14:39:01;10.00;99.90
63966;DHT22;50151;52.030;5.350;2023-11-21T14:41:28;10.00;99.90
63966;DHT22;50151;52.030;5.350;2023-11-21T14:43:55;10.00;99.90
63966;DHT22;50151;52.030;5.350;2023-11-21T14:46:23;10.00;99.90
63966;DHT22;50151;52.030;5.350;2023-11-21T14:48:50;10.00;99.90
63966;DHT22;50151;52.030;5.350;2023-11-21T14:51:34;10.00;99.90
63966;DHT22;50151;52.030;5.350;2023-11-21T14:54:20;10.10;99.90
63966;DHT22;50151;52.030;5.350;2023-11-21T14:57:01;10.00;99.90
63966;DHT22;50151;52.030;5.350;2023-11-21T14:59:28;10.00;99.90
63966;DHT22;50151;52.030;5.350;2023-11-21T15:01:55;9.90;99.90
63966;DHT22;50151;52.030;5.350;2023-11-21T15:04:23;10.00;99.90
63966;DHT22;50151;52.030;5.350;2023-11-21T15:07:06;9.80;99.90
63966;DHT22;50151;52.030;5.350;2023-11-21T15:09:33;9.80;99.90
63966;DHT22;50151;52.030;5.350;2023-11-21T15:12:01;9.80;99.90
63966;DHT22;50151;52.030;5.350;2023-11-21T15:14:52;9.80;99.90
63966;DHT22;50151;52.030;5.350;2023-11-21T15:17:20;9.80;99.90
63966;DHT22;50151;52.030;5.350;2023-11-21T15:19:55;9.80;99.90
63966;DHT22;50151;52.030;5.350;2023-11-21T15:22:22;9.70;99.90
63966;DHT22;50151;52.030;5.350;2023-11-21T15:24:49;9.70;99.90
63966;DHT22;50151;52.030;5.350;2023-11-21T15:27:17;9.60;99.90
63966;DHT22;50151;52.030;5.350;2023-11-21T15:29:44;9.60;99.90
63966;DHT22;50151;52.030;5.350;2023-11-21T15:32:11;9.60;99.90
63966;DHT22;50151;52.030;5.350;2023-11-21T15:34:38;9.60;99.90
63966;DHT22;50151;52.030;5.350;2023-11-21T15:37:07;9.50;99.90
63966;DHT22;50151;52.030;5.350;2023-11-21T15:39:38;9.60;99.90
63966;DHT22;50151;52.030;5.350;2023-11-21T15:42:05;9.50;99.90
63966;DHT22;50151;52.030;5.350;2023-11-21T15:44:34;9.50;99.90
63966;DHT22;50151;52.030;5.350;2023-11-21T15:47:00;9.50;99.90
63966;DHT22;50151;52.030;5.350;2023-11-21T15:49:31;9.40;99.90
63966;DHT22;50151;52.030;5.350;2023-11-21T15:52:01;9.40;99.90
63966;DHT22;50151;52.030;5.350;2023-11-21T15:54:29;9.40;99.90
63966;DHT22;50151;52.030;5.350;2023-11-21T15:56:57;9.40;99.90
63966;DHT22;50151;52.030;5.350;2023-11-21T15:59:26;9.40;99.90
63966;DHT22;50151;52.030;5.350;2023-11-21T16:01:59;9.40;99.90
63966;DHT22;50151;52.030;5.350;2023-11-21T16:04:26;9.30;99.90